Terminal Aerodrome Forecast
Issued by NWS Sioux Falls, SD

Home | Current Version | Previous Version | Graphics & Text | Print | Product List | Glossary On
Versions: 1 2 3 4 5 6 7 8 9 10 11 12 13
590
FTUS43 KFSD 281452 AAA
TAFHON
TAF AMD
KHON 281452Z 2815/2912 28013G20KT P6SM VCSH BKN100
     FM281600 30015G23KT P6SM SCT200
     FM282300 33010KT P6SM SCT250
     FM290800 VRB03KT P6SM SCT200=

USA.gov is the U.S. government's official web portal to all federal, state and local government web resources and services.